Aeroporto :
LOGIN :

Iscrizione | Disclaimer

   EN    FR    IT 

 










Sommario :    VFR   VFR Marginale   IFR   IFR Intensivo   IFR Molto Intensivo
Visibilità : 
Base nubi : 
>= 8 km
>= 3000ft
5 / 8 km
1000 / 3000 ft
1500m / 5 km
500 / 1000 ft
800 / 1500m
200 / 500 ft
< 800m
< 200 ft
Simboli :   Temporali  Nebbia  Neve Forte  Precipitazioni Forti  Vento > 20 kt
SIGMETs :   Varie  Temporali  Ghiacco  Turbolenza  Onda orograficha  Ceneri Vulcaniche







- Altitudine del aeroporto : 1475 ft


LSZC - Buochs Stans

ULTIMO METAR :
  • 240820Z VRB02KT CAVOK 28/18 Q1019

METARs OBSOLETI :
  • 240750Z VRB02KT CAVOK 27/17 Q1019
  • 240720Z VRB01KT CAVOK 26/17 Q1019
  • 240650Z VRB01KT CAVOK 25/17 Q1019
  • 240620Z VRB01KT CAVOK 24/16 Q1019
  • 240550Z VRB02KT CAVOK 22/16 Q1019
  • 240520Z AUTO 24002KT CAVOK 21/16 Q1019

TAF TAF LSZC
Valido dal 24 a 06 ore il 24 a 15 ore UTC


240525Z 2406/2415 VRB03KT CAVOK
Nessun NOTAM noto per questo aeroporto.



MetMap, La meteo Aeronautica in un colpo d'occhio ! - Copyright ORBIFLY Dicembre 2007 - Disclaimer

ORBIFLY MET'MAP TEAM :

Programmazione e sviluppo : Alexandra Zaïnal
Concezione e sviluppo : Baudouin d'Aumeries
Co-Programmazione e sviluppo : Marc-Olivier Méhu
Supporto tecnico e logistico : Manuel Goepfert
Aiuto per la traduzione : Arnaldo La Scala

Contatto : metmap@orbifly.com




FONTI E CREDITI :

   NOAA